Overview Statistics Trail Chart Weather Telemetry Raw packets
 

This is the latest recevied weather packets stored in our database for station/object HA2SKA-1. If no packets are shown the sender has not sent any weather packets the latest 10 day(s).

<< 32 33 34 35 36 37 38 >>
Time Temp. Humidity Pressure Rain* Wind** Luminosity Snow
1787894413 24.44° C 68% 1018.4 hPa - - - -
1787893509 23.89° C 71% 1018.6 hPa - - - -
1787892609 23.89° C 69% 1018.6 hPa - - - -
1787891709 23.89° C 70% 1018.7 hPa - - - -
1787890809 23.33° C 71% 1018.6 hPa - - - -
1787889908 23.89° C 68% 1018.6 hPa - - - -
1787889008 23.89° C 68% 1018.9 hPa - - - -
1787888108 23.89° C 68% 1018.8 hPa - - - -
1787887207 23.89° C 67% 1018.9 hPa - - - -
1787886307 24.44° C 65% 1018.8 hPa - - - -
1787885407 24.44° C 63% 1018.7 hPa - - - -
1787884507 25° C 63% 1018.8 hPa - - - -
1787883610 25° C 64% 1018.7 hPa - - - -
1787882706 25° C 66% 1018.7 hPa - - - -
1787881806 25° C 64% 1018.7 hPa - - - -
1787880906 25.56° C 63% 1018.8 hPa - - - -
1787880006 25.56° C 63% 1019 hPa - - - -
1787879106 26.11° C 61% 1019 hPa - - - -
1787878206 26.11° C 60% 1019.1 hPa - - - -
1787877306 26.11° C 59% 1019.2 hPa - - - -
1787876406 26.67° C 59% 1019.2 hPa - - - -
1787875506 26.67° C 59% 1019.1 hPa - - - -
1787874606 26.11° C 60% 1019.3 hPa - - - -
1787873705 26.67° C 59% 1019.3 hPa - - - -
1787872805 26.67° C 59% 1019.4 hPa - - - -

* Rain since midnight (hover to see other rain measurements)
** Current wind speed in m/s (hover to see current wind gust speed)